Rechercher aéroport 
image banner adimage banner adimage banner ad
image banner ad

KLPC - Lompoc

Situé à Lompoc, United States

ICAO - LPC, IATA - LPC

Données fournies par Airmate  

Information générale

Coordonnées: N34°39'56" W120°28'3"
Élévation : 88 feet MSL.
Variation magnétique : 15° East
Voir autres Aéroports à California

Données opérationnelles

Special qualification required
Heure actuelle UTC:
Heure actuelle locale:
Météo
METAR: KLPC 251603Z AUTO 00000KT 10SM OVC007 14/12 A3001 RMK AO2
Voir NOTAMs / SUP AIP / TFR affectant cet aéroport [VIEW]
Fréquences de communication: [VIEW]

Pistes:

Identifiant RWYQFULongueur (ft)Largeur (ft)SurfaceLDA (ft)
0791°4600100ASPH
25271°4600100ASPH

Coordonnées de l'aéroport

Adresse: Lompoc United States

Autres services d'aviation

Écoles de pilotage

Barnstormers Aero Services, Inc

Barnstormers Aero Services, Inc
minjares@me.com+1(303)885-0346

Vue satellite de KLPC